Iacsonvilla, FL (32257)

02:46 PM EDT die 26o March, anno 2017 (GMT -0400)
Spanish Wells | | Change Station

Elev 26 ft 30.21 °N, 81.61 °W | Updated 14 seconds ago

Partialiter Nubila
Partialiter Nubila
85.3 °F
Feels Like 85 °F
N
5.0
Ventus Variabilis Ventus from Eurus

Hodie
High -- | Low -- °F
--% Chance of Precip.
Yesterday
High -- | Low -- °F
Precip. -- in
Pressio 30.13 in
Visibilitas 10.0 milia passuum
Clouds Nubes Dispersae 4000 ft
Nubes Dispersae 25000 ft
Index Caloris 85 °F
Frigus in quo Ros apparet 58 °F
Umor 40%
Rainfall 0.00 in
Snow Depth Not available.
7:22 AM 7:41 PM
Waning Crescent, 2% visible
METAR KNIP 261753Z 00000KT 10SM SCT040 SCT250 26/13 A3015 RMK AO2 SLP203 T02560128 10261 20167 58014
Pressio 30.13 in
Visibilitas 10.0 milia passuum
Clouds Nubes Dispersae 4000 ft
Nubes Dispersae 25000 ft
Index Caloris 85 °F
Frigus in quo Ros apparet 58 °F
Umor 40%
Rainfall 0.00 in
Snow Depth Not available.
7:22 AM 7:41 PM
Waning Crescent, 2% visible
METAR KNIP 261753Z 00000KT 10SM SCT040 SCT250 26/13 A3015 RMK AO2 SLP203 T02560128 10261 20167 58014

Get Severe Weather Alerts

Thanks for signing up!

Be on the lookout for a verification email in your inbox.

You'll start receiving the daily forecast at 8 AM.

×

10-Day Weather Forecast

Almanac

Astronomy

Mar. 26, 2017 Rise Set
Actual Time
Civil Twilight
Nautical Twilight
Astronomical Twilight
Moon
Length Of Visible Light
Length of Day
Tomorrow will be .
, % of the Moon is Illuminated

Today's Extremes

State Highs State Lows

Community

WunderPhotos

Upload Photos

1,962,540 photos uploaded!

WunderBlog® & News

Nearby

Air Quality

  Air Quality AQ Index Pollutant
Not available.

Snow Depth

Station Depth Elevation

Earthquake Activity

City Distance Mag. Time & Date
Minimum magnitude displayed is 2.5.

Earthquake Activity

City Distance Mag. Time & Date
Minimum magnitude displayed is 2.5.

Coastal Water Temperatures

Locus Calor

Stations

Nearby Weather Stations

Station Location Temp Frigus Venti Frigus in quo Ros apparet Umor Ventus Precip. Elev Renovata Type
                   

Watches & Warnings

There are currently no watches in effect.